^^
Lake Charleston Parkviewx Station Historical Data
 
Daily Summary for September 23, 2020 Units:  English    Metric   Both
Daily Weekly Monthly Yearly Custom
  Current: High: Low: Average:
Temperature: 78.5 °F 80.2 °F 78.5 °F 79.5 °F
Dew Point: 65.4 °F 68 °F 65.3 °F 67 °F
Humidity: 64% 68% 63.5% 66%
Wind Speed: 1.8mph 9.8mph 1.8mph 4.2mph
Wind Gust: 4mph 19mph - -
WindEast - - ENE
Pressure: 29.99 in 30.03 in 29.99 in -
Precipitation: 0.00 in      
Historical Graphs
 
 
Tabular Data for September 23, 2020
Time Temperature Dew Point Pressure Wind Wind Speed Wind Gust Humidity Rainfall Rate (Hourly) solar
00:04 80.1 °F 67.6 °F 30.03 in ENE 4 mph 14 mph 65.8% 0.00 in W/m2
00:09 80.1 °F 67.6 °F 30.03 in ENE 4.3 mph 14 mph 66% 0.00 in W/m2
00:14 80.2 °F 67.8 °F 30.03 in ENE 5.2 mph 10 mph 66% 0.00 in W/m2
00:19 80.2 °F 67.7 °F 30.03 in ENE 3.3 mph 11 mph 65.7% 0.00 in W/m2
00:24 80.2 °F 67.6 °F 30.03 in ENE 5.4 mph 13 mph 65.4% 0.00 in W/m2
00:29 80.2 °F 67.7 °F 30.03 in ENE 4.3 mph 11 mph 65.6% 0.00 in W/m2
00:34 80.2 °F 67.5 °F 30.03 in ENE 7 mph 12 mph 65.1% 0.00 in W/m2
00:39 80.1 °F 67.5 °F 30.02 in ENE 4.4 mph 11 mph 65.2% 0.00 in W/m2
00:44 80.1 °F 67.4 °F 30.02 in ENE 4.5 mph 12 mph 65.5% 0.00 in W/m2
00:49 79.9 °F 67.5 °F 30.02 in ENE 5.1 mph 12 mph 66% 0.00 in W/m2
00:54 79.8 °F 67.4 °F 30.02 in ENE 3.8 mph 12 mph 66% 0.00 in W/m2
00:59 79.6 °F 67.2 °F 30.02 in ENE 4.1 mph 12 mph 66% 0.00 in W/m2
01:04 79.5 °F 67.1 °F 30.02 in ENE 3.5 mph 10 mph 66% 0.00 in W/m2
01:09 79.4 °F 66.9 °F 30.02 in East 4 mph 10 mph 65.8% 0.00 in W/m2
01:14 79.3 °F 66.9 °F 30.02 in ENE 3.7 mph 10 mph 66% 0.00 in W/m2
01:19 79.3 °F 66.9 °F 30.02 in East 2.9 mph 10 mph 66% 0.00 in W/m2
01:24 79.3 °F 66.9 °F 30.02 in East 3.9 mph 10 mph 66.2% 0.00 in W/m2
01:29 79.2 °F 66.7 °F 30.02 in ENE 3.9 mph 9 mph 66% 0.00 in W/m2
01:34 79.3 °F 66.8 °F 30.02 in East 2.8 mph 9 mph 66% 0.00 in W/m2
01:39 79.3 °F 66.8 °F 30.02 in East 4 mph 13 mph 66% 0.00 in W/m2
01:44 79.3 °F 66.9 °F 30.02 in ENE 3.6 mph 9 mph 66% 0.00 in W/m2
01:49 79.3 °F 66.9 °F 30.02 in ENE 3.2 mph 10 mph 66% 0.00 in W/m2
01:54 79.3 °F 66.7 °F 30.01 in East 4.5 mph 9 mph 65.4% 0.00 in W/m2
01:59 79.4 °F 66.2 °F 30.01 in East 5.4 mph 12 mph 64.2% 0.00 in W/m2
02:04 79.4 °F 66.1 °F 30.01 in East 3.9 mph 9 mph 64% 0.00 in W/m2
02:09 79.4 °F 66.1 °F 30.01 in East 3.2 mph 11 mph 64% 0.00 in W/m2
02:14 79.5 °F 66.2 °F 30.01 in ENE 3.2 mph 9 mph 64% 0.00 in W/m2
02:19 79.5 °F 66.8 °F 30.01 in ENE 4.4 mph 11 mph 65.2% 0.00 in W/m2
02:24 79.5 °F 67.1 °F 30.01 in NE 4.5 mph 12 mph 66% 0.00 in W/m2
02:29 79.4 °F 67.2 °F 30.01 in ENE 3.9 mph 11 mph 66.3% 0.00 in W/m2
02:34 79.3 °F 66.9 °F 30.01 in East 4.7 mph 12 mph 66% 0.00 in W/m2
02:39 79.4 °F 67.4 °F 30.00 in ENE 9.8 mph 19 mph 66.7% 0.00 in W/m2
02:44 79.5 °F 68 °F 30.00 in ENE 5 mph 16 mph 68% 0.00 in W/m2
02:49 79.3 °F 67.7 °F 30.00 in ENE 4.4 mph 18 mph 67.8% 0.00 in W/m2
02:54 79.3 °F 67.6 °F 30.00 in East 5.3 mph 18 mph 67.2% 0.00 in W/m2
02:59 79.4 °F 67.9 °F 30.00 in East 4.7 mph 11 mph 68% 0.00 in W/m2
03:04 79.5 °F 68 °F 30.00 in ENE 4.6 mph 10 mph 68% 0.00 in W/m2
03:09 79.4 °F 67.6 °F 30.00 in East 3.7 mph 10 mph 67% 0.00 in W/m2
03:14 79.3 °F 67.5 °F 30.00 in ENE 4.7 mph 10 mph 67% 0.00 in W/m2
03:19 79.3 °F 67.1 °F 30.00 in East 3.2 mph 10 mph 66.4% 0.00 in W/m2
03:24 79.2 °F 66.3 °F 29.99 in East 3.1 mph 11 mph 64.9% 0.00 in W/m2
03:29 79.2 °F 66 °F 29.99 in East 4.7 mph 8 mph 64.3% 0.00 in W/m2
03:34 79 °F 65.7 °F 29.99 in East 3.5 mph 11 mph 63.8% 0.00 in W/m2
03:39 78.7 °F 65.3 °F 29.99 in East 2.4 mph 8 mph 63.5% 0.00 in W/m2
03:44 78.5 °F 65.4 °F 29.99 in East 1.8 mph 4 mph 64% 0.00 in W/m2
Lake Worth, Florida USA
Compliments of Weather Underground - 4 mb